Time;durP1;ratioP1;P1;durP2;ratioP2;P2;SDS_P1;SDS_P2;PMS_P1;PMS_P2;Temp;Humidity;BMP_temperature;BMP_pressure;BME280_temperature;BME280_humidity;BME280_pressure;Samples;Min_cycle;Max_cycle;Signal;HPM_P1;HPM_P2
2022/12/26 00:01:59;;;;;;;4.88;2.92;;;;;;;19.03;47.12;100923.69;4981704;28;20030;-69
2022/12/26 00:04:25;;;;;;;4.20;2.78;;;;;;;19.04;47.25;100925.34;4993879;28;20026;-70
2022/12/26 00:06:50;;;;;;;4.78;3.00;;;;;;;19.05;47.09;100934.13;4988187;28;20041;-71
2022/12/26 00:09:16;;;;;;;5.35;3.40;;;;;;;18.98;47.22;100918.78;4998492;28;20593;-68
2022/12/26 00:11:41;;;;;;;5.65;3.75;;;;;;;18.99;47.69;100930.19;5001683;28;20034;-68
2022/12/26 00:14:12;;;;;;;5.50;3.80;;;;;;;18.96;47.76;100931.28;4998934;28;20474;-69
2022/12/26 00:16:43;;;;;;;4.97;3.33;;;;;;;18.96;47.26;100923.38;4994178;28;20061;-68
2022/12/26 00:19:08;;;;;;;5.18;3.17;;;;;;;19.00;47.30;100934.50;4993005;28;20034;-68
2022/12/26 00:21:34;;;;;;;6.32;3.55;;;;;;;19.03;47.34;100939.53;4988032;28;20466;-69
2022/12/26 00:24:00;;;;;;;5.55;3.40;;;;;;;19.03;47.35;100950.94;4995586;28;20073;-68
2022/12/26 00:26:28;;;;;;;4.95;3.38;;;;;;;19.03;47.38;100958.84;4987074;28;20459;-69
2022/12/26 00:28:54;;;;;;;4.78;3.40;;;;;;;19.04;47.33;100951.75;4985571;28;20118;-68
2022/12/26 00:31:24;;;;;;;5.40;3.15;;;;;;;19.05;47.31;100953.44;4984820;28;20034;-67
2022/12/26 00:33:50;;;;;;;4.30;2.60;;;;;;;19.06;47.29;100970.97;4990099;28;20040;-68
2022/12/26 00:36:24;;;;;;;4.18;2.65;;;;;;;19.06;47.33;100968.34;5004182;28;20049;-66
2022/12/26 00:38:50;;;;;;;;;;;;;;;19.15;47.17;100974.66;4995477;28;20471;-67
2022/12/26 00:41:17;;;;;;;4.40;2.75;;;;;;;19.11;47.34;100968.78;4984848;28;19928;-68
2022/12/26 00:43:42;;;;;;;4.80;2.80;;;;;;;19.15;47.42;100964.94;4987011;28;20065;-69
2022/12/26 00:46:08;;;;;;;4.95;2.75;;;;;;;19.17;47.58;100951.59;5003350;28;20046;-71
2022/12/26 00:48:34;;;;;;;3.90;2.25;;;;;;;19.20;47.50;100957.47;5003768;28;20041;-68
2022/12/26 00:51:00;;;;;;;8.85;2.80;;;;;;;19.21;47.35;100968.84;4993739;28;20030;-68
2022/12/26 00:53:25;;;;;;;5.72;2.85;;;;;;;19.24;47.36;100965.13;5003733;28;20056;-71
2022/12/26 00:55:51;;;;;;;4.30;2.70;;;;;;;19.25;47.28;100975.56;5002735;28;20040;-69
2022/12/26 00:58:18;;;;;;;4.30;2.67;;;;;;;19.26;47.48;100976.41;5003304;28;20033;-69
2022/12/26 01:00:43;;;;;;;4.90;2.80;;;;;;;19.27;47.23;100975.44;4983974;28;20947;-70
2022/12/26 01:03:10;;;;;;;4.35;2.45;;;;;;;19.25;47.26;100985.28;4986758;28;20122;-68
2022/12/26 01:05:40;;;;;;;5.40;2.80;;;;;;;19.26;47.24;100964.00;4984215;28;20038;-69
2022/12/26 01:08:05;;;;;;;4.20;2.58;;;;;;;19.28;47.42;100958.59;4984255;28;20118;-69
2022/12/26 01:10:31;;;;;;;4.10;2.40;;;;;;;19.27;47.11;100970.16;5001756;28;20117;-71
2022/12/26 01:12:56;;;;;;;5.43;3.00;;;;;;;19.26;47.31;100987.78;5003753;28;20263;-69
2022/12/26 01:15:21;;;;;;;4.55;2.70;;;;;;;19.26;47.28;100986.97;4992472;28;20041;-70
2022/12/26 01:17:46;;;;;;;5.00;3.17;;;;;;;19.28;47.04;100990.31;4992731;28;20038;-68
2022/12/26 01:20:13;;;;;;;4.60;2.90;;;;;;;19.24;47.05;100988.91;5000861;28;20088;-72
2022/12/26 01:22:38;;;;;;;6.35;3.00;;;;;;;19.24;47.20;100989.72;4993614;28;20033;-72
2022/12/26 01:25:04;;;;;;;4.32;2.83;;;;;;;19.25;47.04;100988.78;4995212;28;20882;-69
2022/12/26 01:27:30;;;;;;;4.15;2.65;;;;;;;19.23;46.71;100980.13;4985227;28;20038;-69
2022/12/26 01:29:55;;;;;;;4.82;2.50;;;;;;;19.25;47.21;100983.50;4990918;28;20042;-68
2022/12/26 01:32:21;;;;;;;5.72;3.33;;;;;;;19.20;46.97;100972.44;4985772;28;20548;-72
2022/12/26 01:34:46;;;;;;;4.30;2.97;;;;;;;19.25;47.05;100993.19;4989028;28;20058;-68
2022/12/26 01:37:13;;;;;;;4.57;3.17;;;;;;;19.24;46.85;100991.53;4997828;28;20076;-71
2022/12/26 01:39:38;;;;;;;5.10;3.60;;;;;;;19.20;47.14;100983.00;4992804;28;20038;-68
2022/12/26 01:42:17;;;;;;;5.85;3.17;;;;;;;19.23;47.13;100988.03;4999523;28;20052;-68
2022/12/26 01:45:10;;;;;;;5.53;3.40;;;;;;;19.16;46.91;100982.44;4996238;28;20046;-70
2022/12/26 01:47:37;;;;;;;4.70;3.13;;;;;;;19.20;46.82;100983.00;5000682;28;20030;-68
2022/12/26 01:50:03;;;;;;;4.45;3.10;;;;;;;19.19;47.10;100984.00;4995231;28;20042;-68
2022/12/26 01:52:37;;;;;;;4.50;3.20;;;;;;;19.16;47.11;100982.44;4992370;28;20038;-67
2022/12/26 01:55:07;;;;;;;4.90;3.15;;;;;;;19.19;47.05;100976.06;4992121;28;20144;-71
2022/12/26 01:57:39;;;;;;;4.57;3.25;;;;;;;19.16;46.88;100984.25;4995674;28;20076;-69
2022/12/26 02:00:05;;;;;;;4.90;3.30;;;;;;;19.16;46.85;100981.63;4990670;28;20057;-70
2022/12/26 02:05:32;;;;;;;4.90;3.42;;;;;;;19.17;46.82;100984.13;4994866;28;20022;-71
2022/12/26 02:05:35;;;;;;;4.60;3.00;;;;;;;19.13;46.84;100981.88;4992186;28;20066;-69
2022/12/26 02:08:06;;;;;;;5.30;3.60;;;;;;;19.16;46.95;100989.53;4997141;28;20038;-68
2022/12/26 02:10:41;;;;;;;4.40;3.00;;;;;;;19.13;46.70;100989.78;4994910;28;20077;-68
2022/12/26 02:13:06;;;;;;;4.40;2.75;;;;;;;19.17;46.53;100999.16;4999146;28;20140;-68
2022/12/26 02:15:32;;;;;;;4.38;2.90;;;;;;;19.13;46.83;100997.72;4999449;28;20042;-70
2022/12/26 02:17:57;;;;;;;3.97;2.53;;;;;;;19.11;46.82;100994.38;4988406;28;20133;-68
2022/12/26 02:20:26;;;;;;;4.68;3.08;;;;;;;19.10;46.80;100996.16;4991031;28;20471;-71
2022/12/26 02:22:54;;;;;;;4.50;3.05;;;;;;;19.14;46.78;101004.69;4993875;28;20525;-71
2022/12/26 02:25:44;;;;;;;4.53;3.13;;;;;;;19.12;46.81;100996.03;4991177;28;20463;-67
2022/12/26 02:28:57;;;;;;;4.45;2.92;;;;;;;19.12;46.79;101003.97;4993933;28;20045;-68
2022/12/26 02:31:47;;;;;;;4.50;2.90;;;;;;;19.12;46.74;100998.69;4994258;28;20196;-69
2022/12/26 02:34:34;;;;;;;4.32;2.63;;;;;;;19.06;46.66;100984.19;4981891;28;20474;-68
2022/12/26 02:37:07;;;;;;;4.32;2.83;;;;;;;19.08;46.96;100994.63;4994798;28;20101;-69
2022/12/26 02:39:52;;;;;;;4.13;2.70;;;;;;;19.08;46.75;100998.09;4989189;28;20030;-69
2022/12/26 02:42:29;;;;;;;4.85;2.78;;;;;;;19.08;46.68;100997.28;4983833;28;20983;-72
2022/12/26 02:48:10;;;;;;;4.63;2.40;;;;;;;19.06;46.71;101028.22;4985246;28;20069;-74
2022/12/26 03:13:52;;;;;;;4.50;2.13;;;;;;;18.96;46.77;101005.25;4981682;28;20505;-68
2022/12/26 03:19:09;;;;;;;3.65;2.20;;;;;;;18.93;46.75;101026.63;4992929;28;20071;-68
2022/12/26 03:21:40;;;;;;;4.57;2.47;;;;;;;18.87;46.85;101006.00;5001329;28;20042;-72
2022/12/26 03:24:08;;;;;;;3.90;2.42;;;;;;;18.87;46.67;101000.72;4987223;28;20026;-70
2022/12/26 03:26:39;;;;;;;3.67;2.20;;;;;;;18.84;46.76;100995.69;4981822;28;20042;-68
2022/12/26 03:32:03;;;;;;;4.03;2.05;;;;;;;18.88;47.02;100990.97;5001191;28;20033;-69
2022/12/26 03:34:29;;;;;;;3.35;1.83;;;;;;;18.85;46.87;100985.00;4995413;28;20056;-68
2022/12/26 03:37:22;;;;;;;3.70;2.00;;;;;;;18.83;46.83;100981.63;4981773;28;20038;-70
2022/12/26 04:44:10;;;;;;;2.50;1.40;;;;;;;18.63;46.48;101008.81;4990648;28;20037;-70
2022/12/26 04:46:40;;;;;;;2.72;1.50;;;;;;;18.61;46.85;101006.28;4998374;28;20065;-71
2022/12/26 04:51:58;;;;;;;2.92;1.70;;;;;;;18.63;46.38;101000.88;4991304;28;20072;-70
2022/12/26 04:54:25;;;;;;;2.60;1.40;;;;;;;18.58;46.56;100985.41;5003526;28;20124;-69
2022/12/26 04:56:50;;;;;;;3.28;1.70;;;;;;;18.62;46.46;100993.91;4999074;28;20030;-69
2022/12/26 04:59:16;;;;;;;3.88;1.50;;;;;;;18.65;46.52;101009.50;4995208;28;20045;-72
2022/12/26 05:10:04;;;;;;;3.08;1.48;;;;;;;18.63;46.33;101007.00;4993493;28;20093;-69
2022/12/26 05:12:29;;;;;;;2.55;1.50;;;;;;;18.62;46.52;101010.59;4993202;28;20041;-68
2022/12/26 05:14:54;;;;;;;2.85;1.40;;;;;;;18.61;46.44;101010.72;4997666;28;20034;-70
2022/12/26 05:31:17;;;;;;;3.10;1.50;;;;;;;18.62;46.09;101028.22;4994746;28;20068;-69
2022/12/26 05:36:35;;;;;;;2.80;1.50;;;;;;;18.58;46.17;101011.81;4990723;28;20057;-71
2022/12/26 05:39:00;;;;;;;2.60;1.42;;;;;;;18.58;46.36;101000.41;4993988;28;20511;-69
2022/12/26 05:41:26;;;;;;;3.05;1.50;;;;;;;18.56;46.73;101000.50;4993665;28;20044;-67
2022/12/26 05:43:51;;;;;;;2.45;1.40;;;;;;;18.58;46.29;100998.63;4993510;28;20104;-69
2022/12/26 05:46:17;;;;;;;3.35;1.30;;;;;;;18.57;46.28;100994.28;4989780;28;20368;-71
2022/12/26 05:48:42;;;;;;;3.25;1.60;;;;;;;18.58;46.44;100990.69;4993848;28;20943;-69
2022/12/26 05:51:07;;;;;;;2.88;1.40;;;;;;;18.55;46.29;100988.31;4992222;28;20038;-72
2022/12/26 05:53:33;;;;;;;2.55;1.30;;;;;;;18.54;46.29;100980.50;4997479;28;20876;-71
2022/12/26 05:56:07;;;;;;;2.45;1.20;;;;;;;18.57;46.10;100985.53;4989413;28;20406;-70
2022/12/26 05:58:32;;;;;;;3.03;1.38;;;;;;;18.54;45.98;100989.25;4997724;28;20035;-68
2022/12/26 06:01:27;;;;;;;2.58;1.30;;;;;;;18.58;46.16;100995.97;4998593;28;20038;-68
2022/12/26 06:03:55;;;;;;;2.40;1.30;;;;;;;18.54;46.07;100996.34;4989070;28;20046;-69
2022/12/26 06:06:22;;;;;;;2.17;1.27;;;;;;;18.54;45.97;100996.34;5000487;28;20049;-68
2022/12/26 06:08:49;;;;;;;2.28;1.13;;;;;;;18.53;46.11;101006.03;4992924;28;20041;-68
2022/12/26 06:11:16;;;;;;;2.00;1.02;;;;;;;18.54;46.06;101012.19;4990542;28;20364;-68
2022/12/26 06:13:41;;;;;;;2.20;1.20;;;;;;;18.53;46.00;101013.97;4997699;28;20368;-71
2022/12/26 06:16:11;;;;;;;2.70;1.25;;;;;;;18.54;46.05;101020.09;4998692;28;20037;-69
2022/12/26 06:18:36;;;;;;;1.75;1.10;;;;;;;18.52;46.21;101017.56;4987657;28;20076;-68
2022/12/26 06:21:06;;;;;;;2.38;1.20;;;;;;;18.53;46.28;101027.16;4990613;28;20033;-68
2022/12/26 06:23:32;;;;;;;2.22;1.10;;;;;;;18.51;46.01;101023.81;4996602;28;20129;-68
2022/12/26 06:25:58;;;;;;;2.67;1.15;;;;;;;18.54;45.85;101036.75;4987177;28;20046;-70
2022/12/26 06:28:23;;;;;;;2.38;1.20;;;;;;;18.52;46.11;101027.28;4997727;28;20029;-68
2022/12/26 06:30:50;;;;;;;2.53;1.05;;;;;;;18.50;46.21;101038.00;4989603;28;20042;-68
2022/12/26 06:33:16;;;;;;;3.28;1.13;;;;;;;18.52;45.89;101046.59;4989788;28;20034;-69
2022/12/26 06:35:41;;;;;;;2.45;1.10;;;;;;;18.52;46.13;101040.47;4992093;28;20050;-68
2022/12/26 06:38:07;;;;;;;2.53;1.20;;;;;;;18.54;45.99;101059.69;4994750;28;20442;-71
2022/12/26 06:40:32;;;;;;;2.78;1.33;;;;;;;18.52;46.22;101051.03;4992779;28;20035;-70
2022/12/26 06:42:57;;;;;;;2.38;1.10;;;;;;;18.53;46.24;101056.19;4997608;28;20069;-69
2022/12/26 06:45:22;;;;;;;1.73;1.00;;;;;;;18.56;46.45;101053.31;4987330;28;20038;-69
2022/12/26 06:47:48;;;;;;;1.63;0.90;;;;;;;18.53;46.04;101043.00;4989798;28;20038;-68
2022/12/26 06:50:13;;;;;;;1.42;0.90;;;;;;;18.58;46.41;101054.03;4984508;28;20065;-70
2022/12/26 06:52:38;;;;;;;1.55;0.90;;;;;;;18.59;46.49;101046.94;4990813;28;20036;-68
2022/12/26 06:55:04;;;;;;;1.38;0.70;;;;;;;18.58;46.38;101047.91;4986141;28;20061;-71
2022/12/26 06:57:29;;;;;;;2.38;1.00;;;;;;;18.60;46.37;101032.81;4993129;28;20030;-68
2022/12/26 06:59:55;;;;;;;1.98;0.80;;;;;;;18.68;46.30;101044.41;4997085;28;20042;-68
2022/12/26 07:02:21;;;;;;;1.55;0.80;;;;;;;18.68;46.59;101051.50;4987154;28;20084;-67
2022/12/26 07:04:46;;;;;;;1.63;0.90;;;;;;;18.72;46.40;101054.72;4981796;28;20031;-67
2022/12/26 07:07:11;;;;;;;1.27;0.70;;;;;;;18.74;46.29;101045.72;5000455;28;20037;-69
2022/12/26 07:09:36;;;;;;;2.07;0.80;;;;;;;18.77;46.23;101044.63;4987254;28;20538;-69
2022/12/26 07:12:02;;;;;;;0.98;0.68;;;;;;;18.81;46.11;101049.53;5000232;28;20260;-68
2022/12/26 07:14:27;;;;;;;1.17;0.70;;;;;;;18.80;46.24;101045.25;4996332;28;20026;-71
2022/12/26 07:16:53;;;;;;;1.92;0.90;;;;;;;18.85;46.08;101048.38;4980593;28;20034;-71
2022/12/26 07:19:18;;;;;;;1.38;0.77;;;;;;;18.87;45.97;101053.53;4989594;28;20038;-69
2022/12/26 07:21:43;;;;;;;1.48;0.80;;;;;;;18.93;45.86;101060.09;5001403;28;20048;-73
2022/12/26 07:24:14;;;;;;;2.30;0.90;;;;;;;18.93;46.08;101054.81;4992754;28;20038;-68
2022/12/26 07:26:39;;;;;;;1.52;0.70;;;;;;;18.93;45.82;101049.53;4987942;28;20039;-68
2022/12/26 07:29:04;;;;;;;1.43;0.60;;;;;;;18.98;45.92;101053.50;4981947;28;20414;-70
2022/12/26 07:31:30;;;;;;;1.85;0.80;;;;;;;19.03;45.62;101056.59;4982989;28;20346;-72
2022/12/26 07:33:56;;;;;;;1.20;0.65;;;;;;;19.03;45.62;101058.41;4994289;28;20030;-70
2022/12/26 07:36:26;;;;;;;2.33;0.95;;;;;;;19.06;45.65;101054.66;4981985;28;20145;-69
2022/12/26 07:38:51;;;;;;;1.52;0.75;;;;;;;19.08;45.91;101063.31;4981921;28;20061;-69
2022/12/26 07:44:01;;;;;;;1.73;0.60;;;;;;;19.10;45.62;101075.41;4987200;28;20493;-68
2022/12/26 07:46:26;;;;;;;1.77;0.80;;;;;;;19.09;45.76;101067.59;4982275;28;20042;-69
2022/12/26 07:48:52;;;;;;;1.67;0.70;;;;;;;19.08;45.45;101066.78;4990520;28;20128;-68
2022/12/26 07:51:17;;;;;;;1.60;0.70;;;;;;;19.10;45.47;101069.28;4993137;28;20466;-68
2022/12/26 07:53:42;;;;;;;2.67;0.80;;;;;;;19.07;45.46;101061.63;4981489;28;20276;-69
2022/12/26 07:56:08;;;;;;;2.08;0.70;;;;;;;19.07;45.64;101064.25;4982039;28;20070;-71
2022/12/26 07:58:33;;;;;;;1.48;0.70;;;;;;;19.10;45.50;101071.94;5001065;28;20033;-68
2022/12/26 08:01:03;;;;;;;1.15;0.63;;;;;;;19.08;45.69;101084.44;4986481;28;20095;-72
2022/12/26 08:03:28;;;;;;;2.42;0.90;;;;;;;19.09;45.73;101079.03;4994952;28;20041;-69
2022/12/26 08:05:54;;;;;;;1.58;0.80;;;;;;;19.08;45.41;101082.63;4988101;28;20087;-69
2022/12/26 08:08:19;;;;;;;2.03;0.90;;;;;;;19.10;45.58;101079.88;4992502;28;20116;-68
2022/12/26 08:10:44;;;;;;;2.15;0.80;;;;;;;19.05;45.41;101074.94;5000812;28;20038;-72
2022/12/26 08:13:10;;;;;;;1.70;0.63;;;;;;;19.09;45.60;101071.09;4999567;28;20084;-68
2022/12/26 08:15:38;;;;;;;1.77;0.60;;;;;;;19.05;45.74;101074.94;5000460;28;21046;-69
2022/12/26 08:18:04;;;;;;;1.05;0.70;;;;;;;19.06;45.58;101081.94;4985797;28;20044;-68
2022/12/26 08:20:29;;;;;;;2.00;0.70;;;;;;;19.07;45.33;101077.47;4986453;28;20043;-69
2022/12/26 08:22:55;;;;;;;1.85;0.80;;;;;;;19.10;45.29;101080.69;4997611;28;20053;-71
2022/12/26 08:25:20;;;;;;;2.58;0.90;;;;;;;19.08;45.44;101074.72;5000783;28;20967;-72
2022/12/26 08:27:45;;;;;;;2.85;0.80;;;;;;;19.11;45.49;101081.56;4985778;28;20033;-68
2022/12/26 08:30:11;;;;;;;2.13;0.70;;;;;;;19.11;45.55;101076.28;4991465;28;21357;-72
2022/12/26 08:32:36;;;;;;;1.10;0.70;;;;;;;19.08;45.35;101073.88;4995461;28;20041;-69
2022/12/26 08:35:02;;;;;;;1.55;0.68;;;;;;;19.08;45.37;101080.00;5002188;28;20050;-70
2022/12/26 08:37:27;;;;;;;2.05;0.68;;;;;;;19.07;45.58;101075.66;4985020;28;20547;-67
2022/12/26 08:39:52;;;;;;;2.10;0.90;;;;;;;19.08;45.42;101082.63;4995606;28;20120;-72
2022/12/26 08:42:19;;;;;;;1.52;0.60;;;;;;;19.09;45.27;101100.16;4984516;28;20034;-69
2022/12/26 08:44:45;;;;;;;1.38;0.73;;;;;;;19.08;45.40;101102.94;5001258;28;20483;-70
2022/12/26 08:47:10;;;;;;;1.45;0.77;;;;;;;19.07;45.17;101098.59;4985483;28;20061;-72
2022/12/26 08:49:35;;;;;;;1.83;0.70;;;;;;;19.08;45.38;101105.56;4996401;28;20038;-70
2022/12/26 08:52:01;;;;;;;2.10;0.80;;;;;;;19.09;45.18;101101.94;4992424;28;20030;-70
2022/12/26 08:54:26;;;;;;;2.25;0.98;;;;;;;19.09;45.16;101110.72;4999168;28;20064;-72
2022/12/26 08:56:51;;;;;;;1.95;0.70;;;;;;;19.08;45.22;101118.78;4999179;28;20386;-68
2022/12/26 08:59:17;;;;;;;2.03;0.63;;;;;;;19.08;44.91;101116.97;5003628;28;20038;-69
2022/12/26 09:01:43;;;;;;;1.98;0.70;;;;;;;19.06;45.24;101116.25;5003826;28;20092;-72
2022/12/26 09:04:08;;;;;;;2.22;0.75;;;;;;;19.06;45.50;101107.47;4994457;28;20029;-69
2022/12/26 09:06:36;;;;;;;2.45;0.70;;;;;;;19.09;45.46;101125.72;5002151;28;20030;-72
2022/12/26 09:09:02;;;;;;;1.42;0.60;;;;;;;19.09;45.46;101134.50;4994219;28;20073;-68
2022/12/26 09:11:28;;;;;;;2.38;0.70;;;;;;;19.08;45.36;101127.53;5003263;28;20030;-69
2022/12/26 09:13:55;;;;;;;1.55;0.68;;;;;;;19.07;45.24;101128.50;5000589;28;20092;-68
2022/12/26 09:16:29;;;;;;;3.10;0.68;;;;;;;19.06;45.16;101121.53;5001163;28;20033;-69
2022/12/26 09:18:57;;;;;;;2.47;0.80;;;;;;;19.08;45.31;101135.47;4992660;28;20482;-68
2022/12/26 09:21:24;;;;;;;1.25;0.60;;;;;;;19.10;45.25;101146.72;5003144;28;20049;-67
2022/12/26 09:23:49;;;;;;;2.13;0.80;;;;;;;19.10;45.34;101140.63;4987053;28;20027;-68
2022/12/26 09:26:17;;;;;;;1.88;0.80;;;;;;;19.10;45.57;101135.34;4986859;28;20467;-69
2022/12/26 09:28:44;;;;;;;1.63;0.70;;;;;;;19.11;45.21;101148.44;5003010;28;20105;-68
2022/12/26 09:31:13;;;;;;;2.60;0.70;;;;;;;19.06;45.70;101139.19;4999807;28;20066;-70
2022/12/26 09:33:39;;;;;;;3.17;0.68;;;;;;;19.08;45.94;101139.91;4990092;28;20026;-70
2022/12/26 09:36:11;;;;;;;2.10;0.70;;;;;;;19.12;46.11;101165.09;4985489;28;20042;-71
2022/12/26 09:38:36;;;;;;;1.92;0.70;;;;;;;19.12;46.22;101155.41;4994633;28;20084;-69
2022/12/26 09:41:01;;;;;;;2.95;0.90;;;;;;;19.17;46.25;101176.16;4983548;28;20034;-69
2022/12/26 09:43:44;;;;;;;2.53;0.97;;;;;;;19.12;46.37;101163.31;4988347;28;20084;-69
2022/12/26 09:46:22;;;;;;;2.67;0.77;;;;;;;19.16;46.40;101163.91;4985551;28;20276;-69
2022/12/26 09:49:07;;;;;;;2.03;0.70;;;;;;;19.19;46.18;101172.41;4984712;28;20030;-69
2022/12/26 09:51:33;;;;;;;2.05;0.70;;;;;;;19.18;46.36;101173.41;4996746;28;20107;-70
2022/12/26 09:54:03;;;;;;;1.77;0.70;;;;;;;19.23;46.29;101182.75;4994511;28;20490;-67
2022/12/26 09:56:30;;;;;;;2.58;0.80;;;;;;;19.21;46.12;101175.75;4987959;28;20040;-68
2022/12/26 09:59:00;;;;;;;2.88;0.85;;;;;;;19.24;46.12;101182.63;4994700;28;20101;-69
2022/12/26 10:01:35;;;;;;;3.15;1.00;;;;;;;19.24;46.33;101190.53;4995227;28;20066;-70
2022/12/26 10:04:08;;;;;;;1.77;0.68;;;;;;;19.25;46.02;101194.00;4991666;28;20038;-68
2022/12/26 10:06:40;;;;;;;1.60;0.70;;;;;;;19.26;46.03;101191.25;4985981;28;20038;-71
2022/12/26 10:09:33;;;;;;;2.13;0.82;;;;;;;19.35;46.29;101195.81;4989281;28;20042;-69
2022/12/26 10:12:04;;;;;;;2.00;0.80;;;;;;;19.31;46.04;101194.38;4992522;28;20081;-67
2022/12/26 10:14:47;;;;;;;2.15;0.88;;;;;;;19.35;46.30;101209.00;4993669;28;20034;-68
2022/12/26 10:17:41;;;;;;;2.80;0.88;;;;;;;19.35;46.28;101203.72;4996650;28;20042;-73
2022/12/26 10:20:14;;;;;;;2.15;0.70;;;;;;;19.32;46.07;101203.16;4989522;28;20033;-72
2022/12/26 10:22:59;;;;;;;3.83;0.73;;;;;;;19.38;46.02;101208.75;4998301;28;20113;-71
2022/12/26 10:25:41;;;;;;;2.95;0.80;;;;;;;19.38;46.15;101211.41;4990408;28;20120;-72
2022/12/26 10:28:17;;;;;;;3.90;0.90;;;;;;;19.42;46.11;101212.00;4996097;28;20125;-71
2022/12/26 10:30:44;;;;;;;3.63;0.80;;;;;;;19.39;46.08;101202.53;4990440;28;20038;-69
2022/12/26 10:33:24;;;;;;;3.08;0.90;;;;;;;19.41;46.02;101212.97;4994310;28;20037;-71
2022/12/26 10:35:49;;;;;;;2.58;1.00;;;;;;;19.36;46.16;101204.59;5001190;28;20061;-69
2022/12/26 10:38:39;;;;;;;3.35;0.90;;;;;;;19.41;45.99;101249.97;4995779;28;20038;-67
2022/12/26 10:41:36;;;;;;;3.47;0.85;;;;;;;19.42;46.14;101261.38;4986666;28;20057;-73
2022/12/26 10:44:02;;;;;;;5.78;1.02;;;;;;;19.34;46.13;101264.63;4986988;28;20046;-70
2022/12/26 10:46:35;;;;;;;2.28;0.70;;;;;;;19.43;46.18;101284.22;4989146;28;20371;-71
2022/12/26 10:49:01;;;;;;;3.08;0.80;;;;;;;19.35;45.67;101277.72;4987832;28;20077;-68
2022/12/26 10:51:26;;;;;;;3.40;0.77;;;;;;;19.37;45.97;101283.72;4988452;28;20038;-69
2022/12/26 10:53:53;;;;;;;3.05;0.75;;;;;;;19.31;46.01;101280.72;4995727;28;20044;-69
2022/12/26 10:56:21;;;;;;;3.58;1.00;;;;;;;19.34;46.06;101291.94;4996523;28;20045;-68
2022/12/26 10:59:03;;;;;;;3.58;0.82;;;;;;;19.35;45.76;101290.09;4998397;28;20033;-71
2022/12/26 11:01:39;;;;;;;3.38;0.98;;;;;;;19.26;45.83;101288.19;4986525;28;20053;-72
2022/12/26 11:04:22;;;;;;;3.53;0.60;;;;;;;19.30;45.99;101305.50;4992167;28;20034;-71
2022/12/26 11:06:51;;;;;;;3.40;1.05;;;;;;;19.32;46.08;101311.50;4992749;28;20501;-73
2022/12/26 11:09:27;;;;;;;5.45;0.82;;;;;;;19.30;45.80;101306.31;4995440;28;20145;-74
2022/12/26 11:11:53;;;;;;;3.13;0.80;;;;;;;19.28;45.88;101296.84;4994241;28;20339;-71
2022/12/26 11:14:39;;;;;;;3.28;1.13;;;;;;;19.34;45.90;101320.13;4983249;28;20458;-70
2022/12/26 11:17:10;;;;;;;4.43;1.00;;;;;;;19.31;45.83;101321.22;4994507;28;20030;-65
2022/12/26 11:19:38;;;;;;;4.63;0.95;;;;;;;19.34;45.83;101325.41;4986331;28;20038;-68
2022/12/26 11:22:26;;;;;;;3.85;1.00;;;;;;;19.24;45.82;101306.81;4988229;28;20052;-71
2022/12/26 11:25:06;;;;;;;5.13;1.13;;;;;;;19.35;46.08;101337.69;4990900;28;20117;-69
2022/12/26 11:27:31;;;;;;;3.78;0.80;;;;;;;19.31;46.03;101330.94;4998473;28;20038;-69
2022/12/26 11:30:12;;;;;;;2.65;1.02;;;;;;;19.34;45.71;101336.00;4992985;28;20545;-69
2022/12/26 11:32:39;;;;;;;4.18;1.00;;;;;;;19.36;45.81;101336.72;4990554;28;20132;-69
2022/12/26 11:35:05;;;;;;;3.50;0.98;;;;;;;19.30;45.33;101338.03;4998406;28;20157;-70
2022/12/26 11:37:40;;;;;;;3.65;1.30;;;;;;;19.32;45.73;101343.19;4989964;28;20492;-72
2022/12/26 11:40:19;;;;;;;3.55;0.70;;;;;;;19.32;45.63;101346.69;4985486;28;20033;-70
2022/12/26 11:42:59;;;;;;;5.45;1.88;;;;;;;19.31;45.70;101346.81;4987878;28;20121;-70
2022/12/26 11:45:29;;;;;;;4.53;1.00;;;;;;;19.32;45.37;101351.13;4985089;28;20942;-69
2022/12/26 11:47:58;;;;;;;4.07;1.00;;;;;;;19.29;45.49;101351.38;4987354;28;20212;-70
2022/12/26 11:50:26;;;;;;;3.95;0.98;;;;;;;19.30;45.45;101350.41;4986042;28;20050;-68
2022/12/26 11:52:55;;;;;;;3.85;0.98;;;;;;;19.33;45.45;101358.94;4984261;28;20022;-68
2022/12/26 11:55:37;;;;;;;3.15;1.10;;;;;;;19.32;45.32;101354.59;5005057;28;20134;-69
2022/12/26 11:58:20;;;;;;;5.20;1.10;;;;;;;19.32;45.49;101362.53;4968124;28;20088;-68
2022/12/26 12:00:53;;;;;;;5.13;1.10;;;;;;;19.34;45.04;101367.69;4992478;28;20320;-69
2022/12/26 12:03:29;;;;;;;4.90;1.00;;;;;;;19.34;45.12;101370.34;4991006;28;20557;-67
2022/12/26 12:06:03;;;;;;;4.07;1.30;;;;;;;19.34;44.90;101383.56;4980430;28;20038;-70
2022/12/26 12:08:38;;;;;;;;;;;;;;;19.38;44.78;101388.50;4984504;28;20112;-69
2022/12/26 12:11:11;;;;;;;4.20;1.10;;;;;;;19.35;44.61;101380.81;4990676;28;20512;-68
2022/12/26 12:13:44;;;;;;;3.93;1.10;;;;;;;19.36;44.67;101394.88;4993197;28;20053;-73
2022/12/26 12:16:36;;;;;;;6.90;1.60;;;;;;;19.36;44.80;101386.94;4988124;28;20175;-73
2022/12/26 12:19:22;;;;;;;4.88;1.00;;;;;;;19.34;44.73;101396.78;4984421;28;20065;-71
2022/12/26 12:22:11;;;;;;;4.35;1.00;;;;;;;19.32;44.79;101396.91;4985591;28;20061;-68
2022/12/26 12:24:55;;;;;;;3.38;0.88;;;;;;;19.35;44.80;101394.00;4984198;28;20268;-71
2022/12/26 12:27:45;;;;;;;5.47;1.10;;;;;;;19.32;44.41;101394.25;4990998;28;20038;-70
2022/12/26 12:30:46;;;;;;;4.82;1.15;;;;;;;19.36;44.47;101394.88;4985351;28;20034;-71
2022/12/26 12:33:24;;;;;;;5.68;1.15;;;;;;;19.35;44.44;101396.66;4983653;28;20036;-67
2022/12/26 12:36:13;;;;;;;3.55;1.10;;;;;;;19.37;44.26;101393.91;4989092;28;20049;-67
2022/12/26 12:38:53;;;;;;;5.65;1.30;;;;;;;19.36;44.24;101403.63;4990815;28;20991;-67
2022/12/26 12:41:24;;;;;;;5.25;1.10;;;;;;;19.35;44.24;101401.94;4985027;28;20063;-69
2022/12/26 12:44:06;;;;;;;4.60;1.38;;;;;;;19.31;43.86;101404.94;4996227;28;20055;-69
2022/12/26 12:46:48;;;;;;;3.83;1.05;;;;;;;19.32;44.00;101411.91;5004292;28;20034;-68
2022/12/26 12:49:33;;;;;;;4.47;1.20;;;;;;;19.30;43.73;101411.19;4997413;28;20072;-69
2022/12/26 12:52:20;;;;;;;4.15;1.00;;;;;;;19.25;43.98;101416.84;4984409;28;20045;-73
2022/12/26 12:55:10;;;;;;;7.43;1.30;;;;;;;19.24;43.82;101412.50;4988138;28;20045;-68
2022/12/26 12:57:51;;;;;;;3.35;1.08;;;;;;;19.17;43.71;101422.72;4996505;28;20097;-71
2022/12/26 13:00:34;;;;;;;4.38;1.10;;;;;;;19.17;43.78;101430.63;4984515;28;20057;-70
2022/12/26 13:03:14;;;;;;;2.97;0.93;;;;;;;19.14;43.58;101427.41;4985518;28;20038;-69
2022/12/26 13:05:48;;;;;;;5.18;1.17;;;;;;;19.11;43.64;101427.63;4999440;28;20987;-67
2022/12/26 13:08:29;;;;;;;4.43;1.07;;;;;;;19.14;43.42;101430.88;4985989;28;20038;-68
2022/12/26 13:11:00;;;;;;;3.65;0.80;;;;;;;19.11;43.44;101427.63;5003806;28;20271;-68
2022/12/26 13:13:35;;;;;;;4.10;1.13;;;;;;;19.08;43.40;101430.50;5003543;28;20041;-68
2022/12/26 13:16:11;;;;;;;4.10;1.00;;;;;;;19.08;43.29;101427.84;4998581;28;20026;-72
2022/12/26 13:18:43;;;;;;;4.45;1.02;;;;;;;19.04;43.34;101427.22;4991787;28;20152;-68
2022/12/26 13:21:11;;;;;;;3.67;1.00;;;;;;;19.05;43.08;101436.00;5003234;28;20034;-68
2022/12/26 13:26:59;;;;;;;3.92;1.35;;;;;;;19.02;43.00;101432.63;4997393;28;20501;-69
2022/12/26 13:29:30;;;;;;;3.00;1.00;;;;;;;19.01;43.08;101435.41;4983871;28;20030;-71
2022/12/26 13:31:58;;;;;;;3.33;1.00;;;;;;;18.95;43.19;101436.72;4983845;28;20049;-68
2022/12/26 13:34:23;;;;;;;3.17;1.10;;;;;;;18.95;43.04;101443.81;4983466;28;20044;-68
2022/12/26 13:36:53;;;;;;;3.65;0.95;;;;;;;18.97;43.05;101455.09;4985399;28;20038;-69
2022/12/26 13:39:24;;;;;;;3.90;0.80;;;;;;;18.96;43.15;101448.09;4988175;28;20041;-66
2022/12/26 13:44:42;;;;;;;2.40;0.70;;;;;;;18.93;42.99;101445.69;5003254;28;20052;-70
2022/12/26 13:47:29;;;;;;;4.38;1.17;;;;;;;18.97;43.24;101453.28;5003221;28;20034;-67
2022/12/26 13:49:54;;;;;;;2.78;0.90;;;;;;;18.96;43.04;101454.25;4995403;28;20209;-67
2022/12/26 13:52:32;;;;;;;4.18;0.90;;;;;;;18.94;43.42;101450.03;4959756;28;20495;-67
2022/12/26 13:55:03;;;;;;;3.45;1.00;;;;;;;18.96;43.32;101466.59;4988750;28;20045;-68
2022/12/26 13:57:41;;;;;;;4.40;1.00;;;;;;;18.94;43.23;101472.00;4994641;28;20483;-71